sensor_id;sensor_type;location;lat;lon;timestamp;pressure;altitude;pressure_sealevel;temperature;humidity
10940;BME280;5522;42.696;23.494;2023-05-29T00:00:19;53982.47;;;-139.68;100.00
10940;BME280;5522;42.696;23.494;2023-05-29T00:02:47;53956.34;;;-139.68;100.00
10940;BME280;5522;42.696;23.494;2023-05-29T00:05:14;53968.41;;;-139.68;100.00
10940;BME280;5522;42.696;23.494;2023-05-29T00:07:43;53962.38;;;-139.68;100.00
10940;BME280;5522;42.696;23.494;2023-05-29T00:10:10;53960.38;;;-139.68;100.00
10940;BME280;5522;42.696;23.494;2023-05-29T00:12:38;53952.31;;;-139.68;100.00
10940;BME280;5522;42.696;23.494;2023-05-29T00:15:06;53966.38;;;-139.68;100.00
10940;BME280;5522;42.696;23.494;2023-05-29T00:17:33;53948.31;;;-139.68;100.00
10940;BME280;5522;42.696;23.494;2023-05-29T00:20:01;53982.47;;;-139.68;100.00
10940;BME280;5522;42.696;23.494;2023-05-29T00:22:27;53948.31;;;-139.68;100.00
10940;BME280;5522;42.696;23.494;2023-05-29T00:24:55;53906.06;;;-139.68;100.00
10940;BME280;5522;42.696;23.494;2023-05-29T00:27:22;53952.31;;;-139.68;100.00
10940;BME280;5522;42.696;23.494;2023-05-29T00:29:48;53952.31;;;-139.68;100.00
10940;BME280;5522;42.696;23.494;2023-05-29T00:32:15;53952.31;;;-139.68;100.00
10940;BME280;5522;42.696;23.494;2023-05-29T00:34:42;53956.34;;;-139.68;100.00
10940;BME280;5522;42.696;23.494;2023-05-29T00:37:09;53940.25;;;-139.68;100.00
10940;BME280;5522;42.696;23.494;2023-05-29T00:39:36;53988.50;;;-139.68;100.00
10940;BME280;5522;42.696;23.494;2023-05-29T00:42:04;53940.25;;;-139.68;100.00
10940;BME280;5522;42.696;23.494;2023-05-29T00:44:31;53936.22;;;-139.68;100.00
10940;BME280;5522;42.696;23.494;2023-05-29T00:46:58;53885.97;;;-139.68;100.00
10940;BME280;5522;42.696;23.494;2023-05-29T00:49:25;53912.13;;;-139.68;100.00
10940;BME280;5522;42.696;23.494;2023-05-29T00:51:54;53920.16;;;-139.68;100.00
10940;BME280;5522;42.696;23.494;2023-05-29T00:54:26;53956.34;;;-139.68;100.00
10940;BME280;5522;42.696;23.494;2023-05-29T00:56:53;53936.22;;;-139.68;100.00
10940;BME280;5522;42.696;23.494;2023-05-29T00:59:22;53928.19;;;-139.68;100.00
10940;BME280;5522;42.696;23.494;2023-05-29T01:07:00;53966.38;;;-139.68;100.00
10940;BME280;5522;42.696;23.494;2023-05-29T01:09:28;53948.31;;;-139.68;100.00
10940;BME280;5522;42.696;23.494;2023-05-29T01:12:00;53940.25;;;-139.68;100.00
10940;BME280;5522;42.696;23.494;2023-05-29T01:14:43;53924.16;;;-139.68;100.00
10940;BME280;5522;42.696;23.494;2023-05-29T01:17:16;53934.22;;;-139.68;100.00
10940;BME280;5522;42.696;23.494;2023-05-29T01:20:05;53954.31;;;-139.68;100.00
10940;BME280;5522;42.696;23.494;2023-05-29T01:22:45;53956.34;;;-139.68;100.00
10940;BME280;5522;42.696;23.494;2023-05-29T01:25:20;53974.44;;;-139.68;100.00
10940;BME280;5522;42.696;23.494;2023-05-29T01:27:50;53924.16;;;-139.68;100.00
10940;BME280;5522;42.696;23.494;2023-05-29T01:30:19;53964.38;;;-139.68;100.00
10940;BME280;5522;42.696;23.494;2023-05-29T01:32:47;53950.31;;;-139.68;100.00
10940;BME280;5522;42.696;23.494;2023-05-29T01:35:14;53972.41;;;-139.68;100.00
10940;BME280;5522;42.696;23.494;2023-05-29T01:37:40;53974.44;;;-139.68;100.00
10940;BME280;5522;42.696;23.494;2023-05-29T01:40:08;53958.34;;;-139.68;100.00
10940;BME280;5522;42.696;23.494;2023-05-29T01:42:35;53954.31;;;-139.68;100.00
10940;BME280;5522;42.696;23.494;2023-05-29T01:45:04;53942.25;;;-139.68;100.00
10940;BME280;5522;42.696;23.494;2023-05-29T01:47:32;53948.31;;;-139.68;100.00
10940;BME280;5522;42.696;23.494;2023-05-29T01:50:00;53938.25;;;-139.68;100.00
10940;BME280;5522;42.696;23.494;2023-05-29T01:52:28;53972.41;;;-139.68;100.00
10940;BME280;5522;42.696;23.494;2023-05-29T01:54:55;53934.22;;;-139.68;100.00
10940;BME280;5522;42.696;23.494;2023-05-29T01:57:22;53940.25;;;-139.68;100.00
10940;BME280;5522;42.696;23.494;2023-05-29T01:59:50;53948.31;;;-139.68;100.00
10940;BME280;5522;42.696;23.494;2023-05-29T02:02:21;53914.13;;;-139.68;100.00
10940;BME280;5522;42.696;23.494;2023-05-29T02:04:48;53948.31;;;-139.68;100.00
10940;BME280;5522;42.696;23.494;2023-05-29T02:07:17;53960.38;;;-139.68;100.00
10940;BME280;5522;42.696;23.494;2023-05-29T02:09:44;53928.19;;;-139.68;100.00
10940;BME280;5522;42.696;23.494;2023-05-29T02:12:11;53948.31;;;-139.68;100.00
10940;BME280;5522;42.696;23.494;2023-05-29T02:14:38;53946.28;;;-139.68;100.00
10940;BME280;5522;42.696;23.494;2023-05-29T02:17:05;53944.28;;;-139.68;100.00
10940;BME280;5522;42.696;23.494;2023-05-29T02:19:33;53902.06;;;-139.68;100.00
10940;BME280;5522;42.696;23.494;2023-05-29T02:22:02;53904.06;;;-139.68;100.00
10940;BME280;5522;42.696;23.494;2023-05-29T02:24:29;53952.31;;;-139.68;100.00
10940;BME280;5522;42.696;23.494;2023-05-29T02:26:55;53938.25;;;-139.68;100.00
10940;BME280;5522;42.696;23.494;2023-05-29T02:29:22;53996.53;;;-139.68;100.00
10940;BME280;5522;42.696;23.494;2023-05-29T02:31:49;53920.16;;;-139.68;100.00
10940;BME280;5522;42.696;23.494;2023-05-29T02:34:16;53932.22;;;-139.68;100.00
10940;BME280;5522;42.696;23.494;2023-05-29T02:36:44;53944.28;;;-139.68;100.00
10940;BME280;5522;42.696;23.494;2023-05-29T02:39:11;53922.16;;;-139.68;100.00
10940;BME280;5522;42.696;23.494;2023-05-29T02:41:38;53956.34;;;-139.68;100.00
10940;BME280;5522;42.696;23.494;2023-05-29T02:44:05;53918.16;;;-139.68;100.00
10940;BME280;5522;42.696;23.494;2023-05-29T02:46:31;53950.31;;;-139.68;100.00
10940;BME280;5522;42.696;23.494;2023-05-29T02:48:58;53942.25;;;-139.68;100.00
10940;BME280;5522;42.696;23.494;2023-05-29T02:51:25;53954.31;;;-139.68;100.00
10940;BME280;5522;42.696;23.494;2023-05-29T02:53:54;53926.19;;;-139.68;100.00
10940;BME280;5522;42.696;23.494;2023-05-29T02:56:21;53926.19;;;-139.68;100.00
10940;BME280;5522;42.696;23.494;2023-05-29T02:58:49;53940.25;;;-139.68;100.00
10940;BME280;5522;42.696;23.494;2023-05-29T03:01:16;53952.31;;;-139.68;100.00
10940;BME280;5522;42.696;23.494;2023-05-29T03:03:43;53940.25;;;-139.68;100.00
10940;BME280;5522;42.696;23.494;2023-05-29T03:06:09;53904.06;;;-139.68;100.00
10940;BME280;5522;42.696;23.494;2023-05-29T03:08:38;53956.34;;;-139.68;100.00
10940;BME280;5522;42.696;23.494;2023-05-29T03:11:07;53914.13;;;-139.68;100.00
10940;BME280;5522;42.696;23.494;2023-05-29T03:13:34;53972.41;;;-139.68;100.00
10940;BME280;5522;42.696;23.494;2023-05-29T03:16:02;53924.16;;;-139.68;100.00
10940;BME280;5522;42.696;23.494;2023-05-29T03:18:28;53966.38;;;-139.68;100.00
10940;BME280;5522;42.696;23.494;2023-05-29T03:20:55;53968.41;;;-139.68;100.00
10940;BME280;5522;42.696;23.494;2023-05-29T03:23:22;53922.16;;;-139.68;100.00
10940;BME280;5522;42.696;23.494;2023-05-29T03:25:49;53938.25;;;-139.68;100.00
10940;BME280;5522;42.696;23.494;2023-05-29T03:28:17;53954.31;;;-139.68;100.00
10940;BME280;5522;42.696;23.494;2023-05-29T03:30:44;53928.19;;;-139.68;100.00
10940;BME280;5522;42.696;23.494;2023-05-29T03:33:11;53936.22;;;-139.68;100.00
10940;BME280;5522;42.696;23.494;2023-05-29T03:35:38;53976.44;;;-139.68;100.00
10940;BME280;5522;42.696;23.494;2023-05-29T03:38:05;53942.25;;;-139.68;100.00
10940;BME280;5522;42.696;23.494;2023-05-29T03:40:32;53960.38;;;-139.68;100.00
10940;BME280;5522;42.696;23.494;2023-05-29T03:42:59;53922.16;;;-139.68;100.00
10940;BME280;5522;42.696;23.494;2023-05-29T03:45:27;53948.31;;;-139.68;100.00
10940;BME280;5522;42.696;23.494;2023-05-29T03:47:54;53940.25;;;-139.68;100.00
10940;BME280;5522;42.696;23.494;2023-05-29T03:50:21;53924.16;;;-139.68;100.00
10940;BME280;5522;42.696;23.494;2023-05-29T03:52:47;53958.34;;;-139.68;100.00
10940;BME280;5522;42.696;23.494;2023-05-29T03:55:14;53936.22;;;-139.68;100.00
10940;BME280;5522;42.696;23.494;2023-05-29T03:57:41;53964.38;;;-139.68;100.00
10940;BME280;5522;42.696;23.494;2023-05-29T04:00:09;53940.25;;;-139.68;100.00
10940;BME280;5522;42.696;23.494;2023-05-29T04:02:39;53974.44;;;-139.68;100.00
10940;BME280;5522;42.696;23.494;2023-05-29T04:05:07;53970.41;;;-139.68;100.00
10940;BME280;5522;42.696;23.494;2023-05-29T04:07:35;53966.38;;;-139.68;100.00
10940;BME280;5522;42.696;23.494;2023-05-29T04:10:04;53982.47;;;-139.68;100.00
10940;BME280;5522;42.696;23.494;2023-05-29T04:12:31;53924.16;;;-139.68;100.00
10940;BME280;5522;42.696;23.494;2023-05-29T04:15:02;53944.28;;;-139.68;100.00
10940;BME280;5522;42.696;23.494;2023-05-29T04:17:29;53924.16;;;-139.68;100.00
10940;BME280;5522;42.696;23.494;2023-05-29T04:19:58;53928.19;;;-139.68;100.00
10940;BME280;5522;42.696;23.494;2023-05-29T04:22:27;53944.28;;;-139.68;100.00
10940;BME280;5522;42.696;23.494;2023-05-29T04:24:55;53960.38;;;-139.68;100.00
10940;BME280;5522;42.696;23.494;2023-05-29T04:27:21;53930.22;;;-139.68;100.00
10940;BME280;5522;42.696;23.494;2023-05-29T04:29:49;53928.19;;;-139.68;100.00
10940;BME280;5522;42.696;23.494;2023-05-29T04:32:15;53944.28;;;-139.68;100.00
10940;BME280;5522;42.696;23.494;2023-05-29T04:34:42;53940.25;;;-139.68;100.00
10940;BME280;5522;42.696;23.494;2023-05-29T04:37:11;53948.31;;;-139.68;100.00
10940;BME280;5522;42.696;23.494;2023-05-29T04:39:38;53928.19;;;-139.68;100.00
10940;BME280;5522;42.696;23.494;2023-05-29T04:42:05;53968.41;;;-139.68;100.00
10940;BME280;5522;42.696;23.494;2023-05-29T04:44:32;53924.16;;;-139.68;100.00
10940;BME280;5522;42.696;23.494;2023-05-29T04:46:59;53954.31;;;-139.68;100.00
10940;BME280;5522;42.696;23.494;2023-05-29T04:49:29;53946.28;;;-139.68;100.00
10940;BME280;5522;42.696;23.494;2023-05-29T04:51:55;53950.31;;;-139.68;100.00
10940;BME280;5522;42.696;23.494;2023-05-29T04:54:27;53952.31;;;-139.68;100.00
10940;BME280;5522;42.696;23.494;2023-05-29T04:56:54;53966.38;;;-139.68;100.00
10940;BME280;5522;42.696;23.494;2023-05-29T04:59:21;53966.38;;;-139.68;100.00
10940;BME280;5522;42.696;23.494;2023-05-29T05:01:48;53938.25;;;-139.68;100.00
10940;BME280;5522;42.696;23.494;2023-05-29T05:04:15;53972.41;;;-139.68;100.00
10940;BME280;5522;42.696;23.494;2023-05-29T05:06:42;53956.34;;;-139.68;100.00
10940;BME280;5522;42.696;23.494;2023-05-29T05:09:09;53954.31;;;-139.68;100.00
10940;BME280;5522;42.696;23.494;2023-05-29T05:11:37;53944.28;;;-139.68;99.37
10940;BME280;5522;42.696;23.494;2023-05-29T05:14:04;53938.25;;;-139.68;84.61
10940;BME280;5522;42.696;23.494;2023-05-29T05:16:31;53996.53;;;-139.68;71.47
10940;BME280;5522;42.696;23.494;2023-05-29T05:18:58;53940.25;;;-139.68;62.02
10940;BME280;5522;42.696;23.494;2023-05-29T05:21:25;53944.28;;;-139.68;61.56
10940;BME280;5522;42.696;23.494;2023-05-29T05:23:52;53982.47;;;-139.68;60.77
10940;BME280;5522;42.696;23.494;2023-05-29T05:26:19;53984.47;;;-139.68;60.53
10940;BME280;5522;42.696;23.494;2023-05-29T05:28:47;53984.47;;;-139.68;60.75
10940;BME280;5522;42.696;23.494;2023-05-29T05:31:14;53960.38;;;-139.68;64.94
10940;BME280;5522;42.696;23.494;2023-05-29T05:33:41;53942.25;;;-139.68;69.51
10940;BME280;5522;42.696;23.494;2023-05-29T05:36:08;53976.44;;;-139.68;76.75
10940;BME280;5522;42.696;23.494;2023-05-29T05:38:35;53994.53;;;-139.68;81.66
10940;BME280;5522;42.696;23.494;2023-05-29T05:41:02;54008.63;;;-139.68;82.53
10940;BME280;5522;42.696;23.494;2023-05-29T05:43:29;53980.47;;;-139.68;88.38
10940;BME280;5522;42.696;23.494;2023-05-29T05:45:57;54004.59;;;-139.68;89.72
10940;BME280;5522;42.696;23.494;2023-05-29T05:48:24;53960.38;;;-139.68;88.21
10940;BME280;5522;42.696;23.494;2023-05-29T05:50:51;53998.56;;;-139.68;89.89
10940;BME280;5522;42.696;23.494;2023-05-29T05:53:17;53984.47;;;-139.68;89.92
10940;BME280;5522;42.696;23.494;2023-05-29T05:55:46;53948.31;;;-139.68;92.30
10940;BME280;5522;42.696;23.494;2023-05-29T05:58:13;53938.25;;;-139.68;91.92
10940;BME280;5522;42.696;23.494;2023-05-29T06:00:40;53944.28;;;-139.68;88.64
10940;BME280;5522;42.696;23.494;2023-05-29T06:03:09;53988.50;;;-139.68;76.10
10940;BME280;5522;42.696;23.494;2023-05-29T06:05:36;53972.41;;;-139.68;66.32
10940;BME280;5522;42.696;23.494;2023-05-29T06:08:05;53972.41;;;-139.68;61.20
10940;BME280;5522;42.696;23.494;2023-05-29T06:10:33;53938.25;;;-139.68;64.05
10940;BME280;5522;42.696;23.494;2023-05-29T06:13:00;53952.31;;;-139.68;63.54
10940;BME280;5522;42.696;23.494;2023-05-29T06:15:27;54004.59;;;-139.68;60.91
10940;BME280;5522;42.696;23.494;2023-05-29T06:17:54;53918.16;;;-139.68;65.02
10940;BME280;5522;42.696;23.494;2023-05-29T06:20:22;53952.31;;;-139.68;63.28
10940;BME280;5522;42.696;23.494;2023-05-29T06:22:49;53946.28;;;-139.68;61.72
10940;BME280;5522;42.696;23.494;2023-05-29T06:25:16;53998.56;;;-139.68;65.95
10940;BME280;5522;42.696;23.494;2023-05-29T06:27:43;53934.22;;;-139.68;69.78
10940;BME280;5522;42.696;23.494;2023-05-29T06:30:11;53948.31;;;-139.68;73.17
10940;BME280;5522;42.696;23.494;2023-05-29T06:32:38;53976.44;;;-139.68;75.07
10940;BME280;5522;42.696;23.494;2023-05-29T06:35:06;53960.38;;;-139.68;68.63
10940;BME280;5522;42.696;23.494;2023-05-29T06:37:34;53942.25;;;-139.68;60.79
10940;BME280;5522;42.696;23.494;2023-05-29T06:40:01;53952.31;;;-139.68;53.34
10940;BME280;5522;42.696;23.494;2023-05-29T06:42:29;53948.31;;;-139.68;48.20
10940;BME280;5522;42.696;23.494;2023-05-29T06:44:56;53960.38;;;-139.68;51.40
10940;BME280;5522;42.696;23.494;2023-05-29T06:47:23;53954.31;;;-139.68;53.27
10940;BME280;5522;42.696;23.494;2023-05-29T06:49:50;53954.31;;;-139.68;52.27
10940;BME280;5522;42.696;23.494;2023-05-29T06:52:17;53954.31;;;-139.68;50.50
10940;BME280;5522;42.696;23.494;2023-05-29T06:54:45;53972.41;;;-139.68;49.08
10940;BME280;5522;42.696;23.494;2023-05-29T06:57:12;53970.41;;;-139.68;47.02
10940;BME280;5522;42.696;23.494;2023-05-29T06:59:38;53932.22;;;-139.68;44.72
10940;BME280;5522;42.696;23.494;2023-05-29T07:02:06;53980.47;;;-139.68;43.15
10940;BME280;5522;42.696;23.494;2023-05-29T07:04:33;53960.38;;;-139.68;42.48
10940;BME280;5522;42.696;23.494;2023-05-29T07:06:59;53980.47;;;-139.68;39.76
10940;BME280;5522;42.696;23.494;2023-05-29T07:09:26;53982.47;;;-139.68;39.33
10940;BME280;5522;42.696;23.494;2023-05-29T07:11:54;53960.38;;;-139.68;38.71
10940;BME280;5522;42.696;23.494;2023-05-29T07:14:21;54012.63;;;-139.68;39.24
10940;BME280;5522;42.696;23.494;2023-05-29T07:16:48;53986.50;;;-139.68;39.74
10940;BME280;5522;42.696;23.494;2023-05-29T07:19:15;53984.47;;;-139.68;38.12
10940;BME280;5522;42.696;23.494;2023-05-29T07:21:42;53976.44;;;-139.68;38.10
10940;BME280;5522;42.696;23.494;2023-05-29T07:24:09;53948.31;;;-139.68;38.78
10940;BME280;5522;42.696;23.494;2023-05-29T07:26:36;53938.25;;;-139.68;36.92
10940;BME280;5522;42.696;23.494;2023-05-29T07:29:04;53956.34;;;-139.68;36.16
10940;BME280;5522;42.696;23.494;2023-05-29T07:31:31;54006.59;;;-139.68;37.20
10940;BME280;5522;42.696;23.494;2023-05-29T07:33:58;53968.41;;;-139.68;36.88
10940;BME280;5522;42.696;23.494;2023-05-29T07:36:29;53966.38;;;-139.68;36.51
10940;BME280;5522;42.696;23.494;2023-05-29T07:38:56;53952.31;;;-139.68;35.14
10940;BME280;5522;42.696;23.494;2023-05-29T07:41:24;53956.34;;;-139.68;33.66
10940;BME280;5522;42.696;23.494;2023-05-29T07:43:52;53962.38;;;-139.68;35.16
10940;BME280;5522;42.696;23.494;2023-05-29T07:46:20;53964.38;;;-139.68;32.81
10940;BME280;5522;42.696;23.494;2023-05-29T07:48:47;53992.53;;;-139.68;31.89
10940;BME280;5522;42.696;23.494;2023-05-29T07:51:14;53962.38;;;-139.68;33.15
10940;BME280;5522;42.696;23.494;2023-05-29T07:53:44;53996.53;;;-139.68;34.83
10940;BME280;5522;42.696;23.494;2023-05-29T07:56:10;53988.50;;;-139.68;37.23
10940;BME280;5522;42.696;23.494;2023-05-29T07:58:37;54006.59;;;-139.68;39.11
10940;BME280;5522;42.696;23.494;2023-05-29T08:01:05;54036.75;;;-139.68;42.26
10940;BME280;5522;42.696;23.494;2023-05-29T08:03:33;54016.66;;;-139.68;43.70
10940;BME280;5522;42.696;23.494;2023-05-29T08:06:00;53980.47;;;-139.68;40.38
10940;BME280;5522;42.696;23.494;2023-05-29T08:08:28;53964.38;;;-139.68;40.93
10940;BME280;5522;42.696;23.494;2023-05-29T08:10:55;54004.59;;;-139.68;38.78
10940;BME280;5522;42.696;23.494;2023-05-29T08:13:22;53986.50;;;-139.68;39.73
10940;BME280;5522;42.696;23.494;2023-05-29T08:15:49;54060.88;;;-139.68;38.55
10940;BME280;5522;42.696;23.494;2023-05-29T08:18:16;54012.63;;;-139.68;39.99
10940;BME280;5522;42.696;23.494;2023-05-29T08:20:44;54020.66;;;-139.68;42.15
10940;BME280;5522;42.696;23.494;2023-05-29T08:23:11;54004.59;;;-139.68;43.30
10940;BME280;5522;42.696;23.494;2023-05-29T08:25:38;53984.47;;;-139.68;45.92
10940;BME280;5522;42.696;23.494;2023-05-29T08:28:05;54008.63;;;-139.68;45.91
10940;BME280;5522;42.696;23.494;2023-05-29T08:30:31;54032.72;;;-139.68;41.71
10940;BME280;5522;42.696;23.494;2023-05-29T08:32:58;54008.63;;;-139.68;42.18
10940;BME280;5522;42.696;23.494;2023-05-29T08:35:25;54036.75;;;-139.68;43.90
10940;BME280;5522;42.696;23.494;2023-05-29T08:37:53;53972.41;;;-139.68;42.90
10940;BME280;5522;42.696;23.494;2023-05-29T08:40:20;54000.56;;;-139.68;43.04
10940;BME280;5522;42.696;23.494;2023-05-29T08:42:51;54000.56;;;-139.68;37.75
10940;BME280;5522;42.696;23.494;2023-05-29T08:45:22;53966.38;;;-139.68;35.79
10940;BME280;5522;42.696;23.494;2023-05-29T08:47:51;54004.59;;;-139.68;35.40
10940;BME280;5522;42.696;23.494;2023-05-29T08:50:19;53980.47;;;-139.68;33.67
10940;BME280;5522;42.696;23.494;2023-05-29T08:52:46;53940.25;;;-139.68;34.48
10940;BME280;5522;42.696;23.494;2023-05-29T08:55:14;53980.47;;;-139.68;33.03
10940;BME280;5522;42.696;23.494;2023-05-29T08:57:42;53992.53;;;-139.68;33.80
10940;BME280;5522;42.696;23.494;2023-05-29T09:00:11;53976.44;;;-139.68;33.68
10940;BME280;5522;42.696;23.494;2023-05-29T09:02:38;53962.38;;;-139.68;32.59
10940;BME280;5522;42.696;23.494;2023-05-29T09:05:06;53970.41;;;-139.68;30.86
10940;BME280;5522;42.696;23.494;2023-05-29T09:07:34;53946.28;;;-139.68;31.64
10940;BME280;5522;42.696;23.494;2023-05-29T09:10:04;53940.25;;;-139.68;30.78
10940;BME280;5522;42.696;23.494;2023-05-29T09:12:33;53972.41;;;-139.68;30.45
10940;BME280;5522;42.696;23.494;2023-05-29T09:15:00;53942.25;;;-139.68;29.33
10940;BME280;5522;42.696;23.494;2023-05-29T09:17:30;53960.38;;;-139.68;30.32
10940;BME280;5522;42.696;23.494;2023-05-29T09:19:58;53956.34;;;-139.68;29.61
10940;BME280;5522;42.696;23.494;2023-05-29T09:22:26;53960.38;;;-139.68;29.49
10940;BME280;5522;42.696;23.494;2023-05-29T09:24:52;53948.31;;;-139.68;29.41
10940;BME280;5522;42.696;23.494;2023-05-29T09:27:20;53972.41;;;-139.68;28.89
10940;BME280;5522;42.696;23.494;2023-05-29T09:29:49;53956.34;;;-139.68;29.49
10940;BME280;5522;42.696;23.494;2023-05-29T09:32:17;53952.31;;;-139.68;30.40
10940;BME280;5522;42.696;23.494;2023-05-29T09:34:45;53879.94;;;-139.68;29.95
10940;BME280;5522;42.696;23.494;2023-05-29T09:37:12;53946.28;;;-139.68;29.41
10940;BME280;5522;42.696;23.494;2023-05-29T09:39:45;53928.19;;;-139.68;29.08
10940;BME280;5522;42.696;23.494;2023-05-29T09:42:13;53932.22;;;-139.68;30.24
10940;BME280;5522;42.696;23.494;2023-05-29T09:44:40;53976.44;;;-139.68;31.24
10940;BME280;5522;42.696;23.494;2023-05-29T09:47:09;53956.34;;;-139.68;32.66
10940;BME280;5522;42.696;23.494;2023-05-29T09:49:40;53976.44;;;-139.68;34.16
10940;BME280;5522;42.696;23.494;2023-05-29T09:52:07;53976.44;;;-139.68;36.81
10940;BME280;5522;42.696;23.494;2023-05-29T09:54:35;53984.47;;;-139.68;34.87
10940;BME280;5522;42.696;23.494;2023-05-29T09:57:04;53976.44;;;-139.68;33.55
10940;BME280;5522;42.696;23.494;2023-05-29T09:59:32;53964.38;;;-139.68;34.91
10940;BME280;5522;42.696;23.494;2023-05-29T10:02:02;53984.47;;;-139.68;37.37
10940;BME280;5522;42.696;23.494;2023-05-29T10:04:33;53962.38;;;-139.68;37.68
10940;BME280;5522;42.696;23.494;2023-05-29T10:07:05;54002.56;;;-139.68;37.99
10940;BME280;5522;42.696;23.494;2023-05-29T10:09:35;53978.47;;;-139.68;37.43
10940;BME280;5522;42.696;23.494;2023-05-29T10:12:07;53990.50;;;-139.68;41.81
10940;BME280;5522;42.696;23.494;2023-05-29T10:14:35;53964.38;;;-139.68;39.09
10940;BME280;5522;42.696;23.494;2023-05-29T10:17:07;53976.44;;;-139.68;38.19
10940;BME280;5522;42.696;23.494;2023-05-29T10:19:36;54004.59;;;-139.68;37.94
10940;BME280;5522;42.696;23.494;2023-05-29T10:22:04;53952.31;;;-139.68;38.86
10940;BME280;5522;42.696;23.494;2023-05-29T10:24:32;53988.50;;;-139.68;38.10
10940;BME280;5522;42.696;23.494;2023-05-29T10:26:59;53978.47;;;-139.68;38.17
10940;BME280;5522;42.696;23.494;2023-05-29T10:29:29;54000.56;;;-139.68;39.70
10940;BME280;5522;42.696;23.494;2023-05-29T10:32:20;53950.31;;;-139.68;36.76
10940;BME280;5522;42.696;23.494;2023-05-29T10:34:57;54000.56;;;-139.68;39.76
10940;BME280;5522;42.696;23.494;2023-05-29T10:37:34;53990.50;;;-139.68;38.30
10940;BME280;5522;42.696;23.494;2023-05-29T10:40:06;53972.41;;;-139.68;38.88
10940;BME280;5522;42.696;23.494;2023-05-29T10:42:44;53976.44;;;-139.68;38.81
10940;BME280;5522;42.696;23.494;2023-05-29T10:48:41;53998.56;;;-139.68;39.74
10940;BME280;5522;42.696;23.494;2023-05-29T10:51:26;53968.41;;;-139.68;38.82
10940;BME280;5522;42.696;23.494;2023-05-29T10:53:54;54000.56;;;-139.68;39.94
10940;BME280;5522;42.696;23.494;2023-05-29T10:56:22;53972.41;;;-139.68;40.84
10940;BME280;5522;42.696;23.494;2023-05-29T10:59:07;53988.50;;;-139.68;39.93
10940;BME280;5522;42.696;23.494;2023-05-29T11:01:51;53942.25;;;-139.68;38.67
10940;BME280;5522;42.696;23.494;2023-05-29T11:07:53;54004.59;;;-139.68;39.42
10940;BME280;5522;42.696;23.494;2023-05-29T11:11:11;53984.47;;;-139.68;38.39
10940;BME280;5522;42.696;23.494;2023-05-29T11:13:38;53960.38;;;-139.68;39.15
10940;BME280;5522;42.696;23.494;2023-05-29T11:19:28;53960.38;;;-139.68;40.64
10940;BME280;5522;42.696;23.494;2023-05-29T11:25:36;53964.38;;;-139.68;44.78
10940;BME280;5522;42.696;23.494;2023-05-29T11:28:24;53950.31;;;-139.68;45.22
10940;BME280;5522;42.696;23.494;2023-05-29T11:31:08;53966.38;;;-139.68;48.90
10940;BME280;5522;42.696;23.494;2023-05-29T11:37:01;53972.41;;;-139.68;73.98
10940;BME280;5522;42.696;23.494;2023-05-29T11:39:52;53960.38;;;-139.68;74.32
10940;BME280;5522;42.696;23.494;2023-05-29T11:45:42;53942.25;;;-139.68;76.98
10940;BME280;5522;42.696;23.494;2023-05-29T11:51:30;53944.28;;;-139.68;67.00
10940;BME280;5522;42.696;23.494;2023-05-29T11:54:12;53930.22;;;-139.68;70.38
10940;BME280;5522;42.696;23.494;2023-05-29T12:03:23;53978.47;;;-139.68;79.90
10940;BME280;5522;42.696;23.494;2023-05-29T12:05:53;53952.31;;;-139.68;78.08
10940;BME280;5522;42.696;23.494;2023-05-29T12:15:16;53984.47;;;-139.68;58.60
10940;BME280;5522;42.696;23.494;2023-05-29T12:17:52;53952.31;;;-139.68;59.77
10940;BME280;5522;42.696;23.494;2023-05-29T12:20:23;53960.38;;;-139.68;59.95
10940;BME280;5522;42.696;23.494;2023-05-29T12:23:25;53964.38;;;-139.68;61.23
10940;BME280;5522;42.696;23.494;2023-05-29T12:26:29;53948.31;;;-139.68;60.46
10940;BME280;5522;42.696;23.494;2023-05-29T12:29:10;53924.16;;;-139.68;57.58
10940;BME280;5522;42.696;23.494;2023-05-29T12:31:37;53940.25;;;-139.68;58.26
10940;BME280;5522;42.696;23.494;2023-05-29T12:34:08;53952.31;;;-139.68;60.17
10940;BME280;5522;42.696;23.494;2023-05-29T12:40:13;53950.31;;;-139.68;56.70
10940;BME280;5522;42.696;23.494;2023-05-29T12:52:52;53950.31;;;-139.68;59.33
10940;BME280;5522;42.696;23.494;2023-05-29T12:55:20;53936.22;;;-139.68;56.41
10940;BME280;5522;42.696;23.494;2023-05-29T12:57:52;53980.47;;;-139.68;63.08
10940;BME280;5522;42.696;23.494;2023-05-29T13:00:20;53968.41;;;-139.68;65.49
10940;BME280;5522;42.696;23.494;2023-05-29T13:02:47;53950.31;;;-139.68;71.29
10940;BME280;5522;42.696;23.494;2023-05-29T13:08:48;53946.28;;;-139.68;70.38
10940;BME280;5522;42.696;23.494;2023-05-29T13:14:47;53952.31;;;-139.68;69.07
10940;BME280;5522;42.696;23.494;2023-05-29T13:17:15;53976.44;;;-139.68;69.07
10940;BME280;5522;42.696;23.494;2023-05-29T13:19:42;53936.22;;;-139.68;68.02
10940;BME280;5522;42.696;23.494;2023-05-29T13:32:42;53974.44;;;-139.68;63.09
10940;BME280;5522;42.696;23.494;2023-05-29T13:41:52;53950.31;;;-139.68;60.85
10940;BME280;5522;42.696;23.494;2023-05-29T13:47:51;53938.25;;;-139.68;63.17
10940;BME280;5522;42.696;23.494;2023-05-29T13:50:17;53938.25;;;-139.68;64.50
10940;BME280;5522;42.696;23.494;2023-05-29T13:52:45;53958.34;;;-139.68;66.95
10940;BME280;5522;42.696;23.494;2023-05-29T13:59:00;53912.13;;;-139.68;77.78
10940;BME280;5522;42.696;23.494;2023-05-29T14:01:36;53932.22;;;-139.68;83.96
10940;BME280;5522;42.696;23.494;2023-05-29T14:04:04;53964.38;;;-139.68;87.54
10940;BME280;5522;42.696;23.494;2023-05-29T14:06:32;53948.31;;;-139.68;93.26
10940;BME280;5522;42.696;23.494;2023-05-29T14:08:59;53932.22;;;-139.68;97.46
10940;BME280;5522;42.696;23.494;2023-05-29T14:11:26;53956.34;;;-139.68;100.00